sensor_id;sensor_type;location;lat;lon;timestamp;P1;durP1;ratioP1;P2;durP2;ratioP2
9997;SDS011;5038;53.064;8.624;2022-12-11T00:00:54;30.20;;;26.53;;
9997;SDS011;5038;53.064;8.624;2022-12-11T00:03:22;31.03;;;27.63;;
9997;SDS011;5038;53.064;8.624;2022-12-11T00:05:51;34.90;;;30.60;;
9997;SDS011;5038;53.064;8.624;2022-12-11T00:08:19;32.40;;;26.73;;
9997;SDS011;5038;53.064;8.624;2022-12-11T00:10:47;31.67;;;26.90;;
9997;SDS011;5038;53.064;8.624;2022-12-11T00:13:16;31.87;;;28.57;;
9997;SDS011;5038;53.064;8.624;2022-12-11T00:15:45;30.87;;;27.03;;
9997;SDS011;5038;53.064;8.624;2022-12-11T00:18:13;32.40;;;26.57;;
9997;SDS011;5038;53.064;8.624;2022-12-11T00:20:41;30.87;;;26.60;;
9997;SDS011;5038;53.064;8.624;2022-12-11T00:23:09;30.23;;;25.97;;
9997;SDS011;5038;53.064;8.624;2022-12-11T00:25:39;30.87;;;25.70;;
9997;SDS011;5038;53.064;8.624;2022-12-11T00:28:09;29.20;;;26.00;;
9997;SDS011;5038;53.064;8.624;2022-12-11T00:30:38;30.63;;;26.13;;
9997;SDS011;5038;53.064;8.624;2022-12-11T00:33:10;30.20;;;27.00;;
9997;SDS011;5038;53.064;8.624;2022-12-11T00:35:40;31.53;;;26.97;;
9997;SDS011;5038;53.064;8.624;2022-12-11T00:38:12;31.10;;;27.60;;
9997;SDS011;5038;53.064;8.624;2022-12-11T00:40:41;29.40;;;26.07;;
9997;SDS011;5038;53.064;8.624;2022-12-11T00:43:10;30.10;;;26.50;;
9997;SDS011;5038;53.064;8.624;2022-12-11T00:45:39;30.07;;;26.87;;
9997;SDS011;5038;53.064;8.624;2022-12-11T00:48:10;31.20;;;27.50;;
9997;SDS011;5038;53.064;8.624;2022-12-11T00:50:40;29.03;;;24.00;;
9997;SDS011;5038;53.064;8.624;2022-12-11T00:53:08;31.07;;;27.63;;
9997;SDS011;5038;53.064;8.624;2022-12-11T00:55:36;33.93;;;26.70;;
9997;SDS011;5038;53.064;8.624;2022-12-11T00:58:05;31.90;;;27.10;;
9997;SDS011;5038;53.064;8.624;2022-12-11T01:00:34;34.20;;;28.60;;
9997;SDS011;5038;53.064;8.624;2022-12-11T01:03:03;31.63;;;27.70;;
9997;SDS011;5038;53.064;8.624;2022-12-11T01:05:33;30.67;;;26.60;;
9997;SDS011;5038;53.064;8.624;2022-12-11T01:08:02;31.67;;;27.87;;
9997;SDS011;5038;53.064;8.624;2022-12-11T01:10:30;30.00;;;26.70;;
9997;SDS011;5038;53.064;8.624;2022-12-11T01:12:58;30.57;;;26.17;;
9997;SDS011;5038;53.064;8.624;2022-12-11T01:15:29;32.80;;;26.80;;
9997;SDS011;5038;53.064;8.624;2022-12-11T01:18:05;27.27;;;24.23;;
9997;SDS011;5038;53.064;8.624;2022-12-11T01:20:35;32.10;;;27.13;;
9997;SDS011;5038;53.064;8.624;2022-12-11T01:23:04;33.10;;;27.23;;
9997;SDS011;5038;53.064;8.624;2022-12-11T01:25:33;30.80;;;25.33;;
9997;SDS011;5038;53.064;8.624;2022-12-11T01:28:03;32.60;;;29.10;;
9997;SDS011;5038;53.064;8.624;2022-12-11T01:30:32;29.20;;;24.87;;
9997;SDS011;5038;53.064;8.624;2022-12-11T01:33:01;31.43;;;26.63;;
9997;SDS011;5038;53.064;8.624;2022-12-11T01:35:29;30.53;;;26.73;;
9997;SDS011;5038;53.064;8.624;2022-12-11T01:37:59;28.77;;;24.00;;
9997;SDS011;5038;53.064;8.624;2022-12-11T01:40:28;31.43;;;27.13;;
9997;SDS011;5038;53.064;8.624;2022-12-11T01:42:56;30.63;;;27.33;;
9997;SDS011;5038;53.064;8.624;2022-12-11T01:45:29;29.40;;;25.53;;
9997;SDS011;5038;53.064;8.624;2022-12-11T01:48:03;35.40;;;27.43;;
9997;SDS011;5038;53.064;8.624;2022-12-11T01:50:35;30.20;;;24.20;;
9997;SDS011;5038;53.064;8.624;2022-12-11T01:53:09;30.00;;;25.93;;
9997;SDS011;5038;53.064;8.624;2022-12-11T01:55:41;30.93;;;27.30;;
9997;SDS011;5038;53.064;8.624;2022-12-11T01:58:11;33.10;;;25.97;;
9997;SDS011;5038;53.064;8.624;2022-12-11T02:00:39;31.53;;;26.60;;
9997;SDS011;5038;53.064;8.624;2022-12-11T02:03:07;32.10;;;28.60;;
9997;SDS011;5038;53.064;8.624;2022-12-11T02:05:35;28.33;;;25.43;;
9997;SDS011;5038;53.064;8.624;2022-12-11T02:08:04;32.47;;;28.30;;
9997;SDS011;5038;53.064;8.624;2022-12-11T02:10:53;34.80;;;29.10;;
9997;SDS011;5038;53.064;8.624;2022-12-11T02:13:34;30.13;;;26.53;;
9997;SDS011;5038;53.064;8.624;2022-12-11T02:16:09;29.90;;;26.10;;
9997;SDS011;5038;53.064;8.624;2022-12-11T02:18:46;30.47;;;25.77;;
9997;SDS011;5038;53.064;8.624;2022-12-11T02:21:21;30.57;;;26.77;;
9997;SDS011;5038;53.064;8.624;2022-12-11T02:23:56;30.67;;;27.37;;
9997;SDS011;5038;53.064;8.624;2022-12-11T02:26:44;30.47;;;27.17;;
9997;SDS011;5038;53.064;8.624;2022-12-11T02:29:24;30.20;;;24.50;;
9997;SDS011;5038;53.064;8.624;2022-12-11T02:31:57;31.30;;;28.03;;
9997;SDS011;5038;53.064;8.624;2022-12-11T02:34:31;29.87;;;24.80;;
9997;SDS011;5038;53.064;8.624;2022-12-11T02:37:04;31.70;;;28.40;;
9997;SDS011;5038;53.064;8.624;2022-12-11T02:39:36;30.30;;;25.80;;
9997;SDS011;5038;53.064;8.624;2022-12-11T02:42:08;29.43;;;26.17;;
9997;SDS011;5038;53.064;8.624;2022-12-11T02:44:38;33.90;;;27.67;;
9997;SDS011;5038;53.064;8.624;2022-12-11T02:47:09;30.10;;;24.90;;
9997;SDS011;5038;53.064;8.624;2022-12-11T02:49:41;29.60;;;26.13;;
9997;SDS011;5038;53.064;8.624;2022-12-11T02:52:12;28.80;;;24.43;;
9997;SDS011;5038;53.064;8.624;2022-12-11T02:54:43;29.80;;;26.60;;
9997;SDS011;5038;53.064;8.624;2022-12-11T02:57:14;30.83;;;25.60;;
9997;SDS011;5038;53.064;8.624;2022-12-11T02:59:48;29.60;;;26.40;;
9997;SDS011;5038;53.064;8.624;2022-12-11T03:02:16;28.93;;;25.20;;
9997;SDS011;5038;53.064;8.624;2022-12-11T03:04:45;29.47;;;23.43;;
9997;SDS011;5038;53.064;8.624;2022-12-11T03:07:15;29.67;;;25.63;;
9997;SDS011;5038;53.064;8.624;2022-12-11T03:09:48;30.33;;;26.53;;
9997;SDS011;5038;53.064;8.624;2022-12-11T03:12:17;28.27;;;25.27;;
9997;SDS011;5038;53.064;8.624;2022-12-11T03:14:50;28.23;;;24.03;;
9997;SDS011;5038;53.064;8.624;2022-12-11T03:17:20;28.20;;;24.10;;
9997;SDS011;5038;53.064;8.624;2022-12-11T03:19:52;28.50;;;23.37;;
9997;SDS011;5038;53.064;8.624;2022-12-11T03:22:30;28.70;;;25.37;;
9997;SDS011;5038;53.064;8.624;2022-12-11T03:25:06;29.83;;;24.37;;
9997;SDS011;5038;53.064;8.624;2022-12-11T03:27:37;31.37;;;26.03;;
9997;SDS011;5038;53.064;8.624;2022-12-11T03:30:13;29.40;;;26.13;;
9997;SDS011;5038;53.064;8.624;2022-12-11T03:32:48;27.93;;;23.93;;
9997;SDS011;5038;53.064;8.624;2022-12-11T03:35:20;30.53;;;26.40;;
9997;SDS011;5038;53.064;8.624;2022-12-11T03:37:52;30.07;;;24.10;;
9997;SDS011;5038;53.064;8.624;2022-12-11T03:40:22;27.60;;;22.90;;
9997;SDS011;5038;53.064;8.624;2022-12-11T03:42:53;29.57;;;24.03;;
9997;SDS011;5038;53.064;8.624;2022-12-11T03:45:25;30.27;;;25.23;;
9997;SDS011;5038;53.064;8.624;2022-12-11T03:47:56;31.10;;;25.40;;
9997;SDS011;5038;53.064;8.624;2022-12-11T03:50:28;30.00;;;26.73;;
9997;SDS011;5038;53.064;8.624;2022-12-11T03:52:58;33.93;;;23.60;;
9997;SDS011;5038;53.064;8.624;2022-12-11T03:55:27;28.90;;;24.63;;
9997;SDS011;5038;53.064;8.624;2022-12-11T03:57:56;29.70;;;26.13;;
9997;SDS011;5038;53.064;8.624;2022-12-11T04:00:26;32.73;;;24.87;;
9997;SDS011;5038;53.064;8.624;2022-12-11T04:02:55;29.17;;;25.33;;
9997;SDS011;5038;53.064;8.624;2022-12-11T04:05:44;30.90;;;26.37;;
9997;SDS011;5038;53.064;8.624;2022-12-11T04:08:13;31.20;;;26.20;;
9997;SDS011;5038;53.064;8.624;2022-12-11T04:10:41;29.33;;;23.93;;
9997;SDS011;5038;53.064;8.624;2022-12-11T04:13:10;32.40;;;26.80;;
9997;SDS011;5038;53.064;8.624;2022-12-11T04:15:39;30.87;;;27.57;;
9997;SDS011;5038;53.064;8.624;2022-12-11T04:18:07;30.10;;;25.80;;
9997;SDS011;5038;53.064;8.624;2022-12-11T04:20:52;27.23;;;23.00;;
9997;SDS011;5038;53.064;8.624;2022-12-11T04:23:38;30.80;;;25.23;;
9997;SDS011;5038;53.064;8.624;2022-12-11T04:26:24;30.23;;;26.60;;
9997;SDS011;5038;53.064;8.624;2022-12-11T04:28:52;31.07;;;26.00;;
9997;SDS011;5038;53.064;8.624;2022-12-11T04:31:22;31.77;;;27.70;;
9997;SDS011;5038;53.064;8.624;2022-12-11T04:33:50;32.67;;;27.13;;
9997;SDS011;5038;53.064;8.624;2022-12-11T04:36:18;28.57;;;24.63;;
9997;SDS011;5038;53.064;8.624;2022-12-11T04:38:46;27.97;;;24.67;;
9997;SDS011;5038;53.064;8.624;2022-12-11T04:41:14;30.13;;;26.90;;
9997;SDS011;5038;53.064;8.624;2022-12-11T04:43:43;31.30;;;26.13;;
9997;SDS011;5038;53.064;8.624;2022-12-11T04:46:12;31.13;;;25.50;;
9997;SDS011;5038;53.064;8.624;2022-12-11T04:48:44;29.70;;;26.50;;
9997;SDS011;5038;53.064;8.624;2022-12-11T04:51:19;28.80;;;25.60;;
9997;SDS011;5038;53.064;8.624;2022-12-11T04:53:47;34.83;;;25.27;;
9997;SDS011;5038;53.064;8.624;2022-12-11T04:56:15;29.30;;;25.70;;
9997;SDS011;5038;53.064;8.624;2022-12-11T04:58:44;29.80;;;26.20;;
9997;SDS011;5038;53.064;8.624;2022-12-11T05:01:13;32.13;;;28.73;;
9997;SDS011;5038;53.064;8.624;2022-12-11T05:03:44;31.30;;;27.90;;
9997;SDS011;5038;53.064;8.624;2022-12-11T05:06:12;31.03;;;27.43;;
9997;SDS011;5038;53.064;8.624;2022-12-11T05:08:41;30.43;;;26.40;;
9997;SDS011;5038;53.064;8.624;2022-12-11T05:11:11;32.23;;;26.27;;
9997;SDS011;5038;53.064;8.624;2022-12-11T05:13:41;30.90;;;27.60;;
9997;SDS011;5038;53.064;8.624;2022-12-11T05:16:10;30.00;;;26.77;;
9997;SDS011;5038;53.064;8.624;2022-12-11T05:18:41;30.07;;;26.80;;
9997;SDS011;5038;53.064;8.624;2022-12-11T05:21:11;29.77;;;26.20;;
9997;SDS011;5038;53.064;8.624;2022-12-11T05:23:40;31.90;;;27.90;;
9997;SDS011;5038;53.064;8.624;2022-12-11T05:26:10;34.10;;;30.17;;
9997;SDS011;5038;53.064;8.624;2022-12-11T05:28:40;32.47;;;26.73;;
9997;SDS011;5038;53.064;8.624;2022-12-11T05:31:11;32.33;;;27.60;;
9997;SDS011;5038;53.064;8.624;2022-12-11T05:33:40;33.47;;;28.70;;
9997;SDS011;5038;53.064;8.624;2022-12-11T05:36:08;33.50;;;28.60;;
9997;SDS011;5038;53.064;8.624;2022-12-11T05:38:43;32.87;;;27.33;;
9997;SDS011;5038;53.064;8.624;2022-12-11T05:41:12;33.30;;;27.80;;
9997;SDS011;5038;53.064;8.624;2022-12-11T05:43:42;32.90;;;29.07;;
9997;SDS011;5038;53.064;8.624;2022-12-11T05:46:12;32.20;;;27.30;;
9997;SDS011;5038;53.064;8.624;2022-12-11T05:48:42;33.00;;;27.90;;
9997;SDS011;5038;53.064;8.624;2022-12-11T05:51:12;31.03;;;26.73;;
9997;SDS011;5038;53.064;8.624;2022-12-11T05:53:43;35.20;;;29.13;;
9997;SDS011;5038;53.064;8.624;2022-12-11T05:56:12;30.80;;;27.30;;
9997;SDS011;5038;53.064;8.624;2022-12-11T05:58:42;34.77;;;28.27;;
9997;SDS011;5038;53.064;8.624;2022-12-11T06:01:12;33.07;;;26.43;;
9997;SDS011;5038;53.064;8.624;2022-12-11T06:03:41;35.90;;;29.37;;
9997;SDS011;5038;53.064;8.624;2022-12-11T06:06:10;33.80;;;28.47;;
9997;SDS011;5038;53.064;8.624;2022-12-11T06:08:39;34.03;;;28.13;;
9997;SDS011;5038;53.064;8.624;2022-12-11T06:11:08;35.00;;;30.13;;
9997;SDS011;5038;53.064;8.624;2022-12-11T06:13:38;34.00;;;28.57;;
9997;SDS011;5038;53.064;8.624;2022-12-11T06:16:07;31.30;;;27.87;;
9997;SDS011;5038;53.064;8.624;2022-12-11T06:18:35;35.07;;;29.57;;
9997;SDS011;5038;53.064;8.624;2022-12-11T06:21:09;28.93;;;23.00;;
9997;SDS011;5038;53.064;8.624;2022-12-11T06:23:41;36.17;;;28.53;;
9997;SDS011;5038;53.064;8.624;2022-12-11T06:26:10;34.63;;;28.87;;
9997;SDS011;5038;53.064;8.624;2022-12-11T06:28:38;38.63;;;31.43;;
9997;SDS011;5038;53.064;8.624;2022-12-11T06:31:06;38.30;;;30.07;;
9997;SDS011;5038;53.064;8.624;2022-12-11T06:33:34;33.23;;;29.43;;
9997;SDS011;5038;53.064;8.624;2022-12-11T06:36:03;35.90;;;29.37;;
9997;SDS011;5038;53.064;8.624;2022-12-11T06:38:32;36.83;;;30.30;;
9997;SDS011;5038;53.064;8.624;2022-12-11T06:41:01;33.60;;;28.53;;
9997;SDS011;5038;53.064;8.624;2022-12-11T06:43:31;29.83;;;23.73;;
9997;SDS011;5038;53.064;8.624;2022-12-11T06:46:02;38.87;;;32.57;;
9997;SDS011;5038;53.064;8.624;2022-12-11T06:48:31;33.30;;;27.63;;
9997;SDS011;5038;53.064;8.624;2022-12-11T06:51:03;33.37;;;28.90;;
9997;SDS011;5038;53.064;8.624;2022-12-11T06:53:32;34.70;;;28.30;;
9997;SDS011;5038;53.064;8.624;2022-12-11T06:56:03;33.27;;;27.43;;
9997;SDS011;5038;53.064;8.624;2022-12-11T06:58:33;31.30;;;25.83;;
9997;SDS011;5038;53.064;8.624;2022-12-11T07:01:02;32.30;;;27.80;;
9997;SDS011;5038;53.064;8.624;2022-12-11T07:03:31;37.17;;;28.83;;
9997;SDS011;5038;53.064;8.624;2022-12-11T07:05:59;33.93;;;28.60;;
9997;SDS011;5038;53.064;8.624;2022-12-11T07:08:28;33.03;;;29.33;;
9997;SDS011;5038;53.064;8.624;2022-12-11T07:11:00;35.10;;;29.30;;
9997;SDS011;5038;53.064;8.624;2022-12-11T07:13:31;35.13;;;29.57;;
9997;SDS011;5038;53.064;8.624;2022-12-11T07:16:00;36.20;;;28.87;;
9997;SDS011;5038;53.064;8.624;2022-12-11T07:18:30;35.83;;;28.90;;
9997;SDS011;5038;53.064;8.624;2022-12-11T07:20:58;35.07;;;27.80;;
9997;SDS011;5038;53.064;8.624;2022-12-11T07:23:27;34.27;;;28.80;;
9997;SDS011;5038;53.064;8.624;2022-12-11T07:25:55;32.87;;;27.03;;
9997;SDS011;5038;53.064;8.624;2022-12-11T07:28:25;32.37;;;27.03;;
9997;SDS011;5038;53.064;8.624;2022-12-11T07:30:53;38.10;;;27.80;;
9997;SDS011;5038;53.064;8.624;2022-12-11T07:33:21;34.07;;;29.03;;
9997;SDS011;5038;53.064;8.624;2022-12-11T07:35:49;42.87;;;34.67;;
9997;SDS011;5038;53.064;8.624;2022-12-11T07:38:17;40.40;;;33.87;;
9997;SDS011;5038;53.064;8.624;2022-12-11T07:40:45;33.50;;;29.43;;
9997;SDS011;5038;53.064;8.624;2022-12-11T07:43:13;35.90;;;31.07;;
9997;SDS011;5038;53.064;8.624;2022-12-11T07:45:42;33.90;;;27.37;;
9997;SDS011;5038;53.064;8.624;2022-12-11T07:48:11;33.10;;;28.13;;
9997;SDS011;5038;53.064;8.624;2022-12-11T07:50:39;33.23;;;27.50;;
9997;SDS011;5038;53.064;8.624;2022-12-11T07:53:07;35.40;;;28.53;;
9997;SDS011;5038;53.064;8.624;2022-12-11T07:55:35;34.90;;;30.00;;
9997;SDS011;5038;53.064;8.624;2022-12-11T07:58:03;34.47;;;28.93;;
9997;SDS011;5038;53.064;8.624;2022-12-11T08:00:31;33.20;;;27.50;;
9997;SDS011;5038;53.064;8.624;2022-12-11T08:03:00;33.23;;;27.57;;
9997;SDS011;5038;53.064;8.624;2022-12-11T08:05:28;37.17;;;29.27;;
9997;SDS011;5038;53.064;8.624;2022-12-11T08:08:00;43.50;;;34.73;;
9997;SDS011;5038;53.064;8.624;2022-12-11T08:10:28;36.60;;;31.20;;
9997;SDS011;5038;53.064;8.624;2022-12-11T08:12:56;38.87;;;30.33;;
9997;SDS011;5038;53.064;8.624;2022-12-11T08:15:24;38.80;;;31.17;;
9997;SDS011;5038;53.064;8.624;2022-12-11T08:17:52;36.60;;;29.90;;
9997;SDS011;5038;53.064;8.624;2022-12-11T08:20:22;40.63;;;30.97;;
9997;SDS011;5038;53.064;8.624;2022-12-11T08:22:50;35.60;;;30.00;;
9997;SDS011;5038;53.064;8.624;2022-12-11T08:25:24;39.83;;;30.63;;
9997;SDS011;5038;53.064;8.624;2022-12-11T08:27:52;37.20;;;31.23;;
9997;SDS011;5038;53.064;8.624;2022-12-11T08:30:20;39.27;;;34.57;;
9997;SDS011;5038;53.064;8.624;2022-12-11T08:32:48;40.20;;;34.00;;
9997;SDS011;5038;53.064;8.624;2022-12-11T08:35:16;42.80;;;34.50;;
9997;SDS011;5038;53.064;8.624;2022-12-11T08:37:46;39.13;;;34.83;;
9997;SDS011;5038;53.064;8.624;2022-12-11T08:40:14;35.63;;;30.50;;
9997;SDS011;5038;53.064;8.624;2022-12-11T08:42:42;38.37;;;33.60;;
9997;SDS011;5038;53.064;8.624;2022-12-11T08:45:10;38.10;;;31.17;;
9997;SDS011;5038;53.064;8.624;2022-12-11T08:47:38;39.17;;;30.97;;
9997;SDS011;5038;53.064;8.624;2022-12-11T08:50:06;38.77;;;30.60;;
9997;SDS011;5038;53.064;8.624;2022-12-11T08:52:35;33.70;;;29.63;;
9997;SDS011;5038;53.064;8.624;2022-12-11T08:55:05;38.47;;;32.03;;
9997;SDS011;5038;53.064;8.624;2022-12-11T08:57:34;38.50;;;30.80;;
9997;SDS011;5038;53.064;8.624;2022-12-11T09:00:05;33.80;;;28.50;;
9997;SDS011;5038;53.064;8.624;2022-12-11T09:02:39;33.17;;;28.60;;
9997;SDS011;5038;53.064;8.624;2022-12-11T09:05:07;33.33;;;29.10;;
9997;SDS011;5038;53.064;8.624;2022-12-11T09:07:36;34.33;;;28.57;;
9997;SDS011;5038;53.064;8.624;2022-12-11T09:10:06;34.73;;;28.30;;
9997;SDS011;5038;53.064;8.624;2022-12-11T09:12:35;37.03;;;31.00;;
9997;SDS011;5038;53.064;8.624;2022-12-11T09:15:04;34.93;;;27.97;;
9997;SDS011;5038;53.064;8.624;2022-12-11T09:17:33;35.93;;;30.70;;
9997;SDS011;5038;53.064;8.624;2022-12-11T09:20:02;31.63;;;28.03;;
9997;SDS011;5038;53.064;8.624;2022-12-11T09:22:30;37.00;;;30.00;;
9997;SDS011;5038;53.064;8.624;2022-12-11T09:24:58;34.57;;;28.53;;
9997;SDS011;5038;53.064;8.624;2022-12-11T09:27:28;45.60;;;36.20;;
9997;SDS011;5038;53.064;8.624;2022-12-11T09:29:56;37.30;;;32.20;;
9997;SDS011;5038;53.064;8.624;2022-12-11T09:32:24;32.83;;;28.13;;
9997;SDS011;5038;53.064;8.624;2022-12-11T09:34:52;32.57;;;28.27;;
9997;SDS011;5038;53.064;8.624;2022-12-11T09:37:20;31.30;;;26.30;;
9997;SDS011;5038;53.064;8.624;2022-12-11T09:39:48;37.07;;;29.40;;
9997;SDS011;5038;53.064;8.624;2022-12-11T09:42:17;32.87;;;29.20;;
9997;SDS011;5038;53.064;8.624;2022-12-11T09:44:52;33.87;;;26.70;;
9997;SDS011;5038;53.064;8.624;2022-12-11T09:47:24;34.13;;;27.40;;
9997;SDS011;5038;53.064;8.624;2022-12-11T09:49:57;33.00;;;25.63;;
9997;SDS011;5038;53.064;8.624;2022-12-11T09:52:34;33.30;;;28.10;;
9997;SDS011;5038;53.064;8.624;2022-12-11T09:55:09;32.27;;;27.80;;
9997;SDS011;5038;53.064;8.624;2022-12-11T09:57:45;32.63;;;27.47;;
9997;SDS011;5038;53.064;8.624;2022-12-11T10:00:22;35.07;;;27.50;;
9997;SDS011;5038;53.064;8.624;2022-12-11T10:03:06;32.57;;;26.60;;
9997;SDS011;5038;53.064;8.624;2022-12-11T10:05:56;35.10;;;25.73;;
9997;SDS011;5038;53.064;8.624;2022-12-11T10:08:31;33.93;;;24.93;;
9997;SDS011;5038;53.064;8.624;2022-12-11T10:11:10;33.37;;;27.47;;
9997;SDS011;5038;53.064;8.624;2022-12-11T10:14:04;36.57;;;28.77;;
9997;SDS011;5038;53.064;8.624;2022-12-11T10:16:39;36.93;;;27.23;;
9997;SDS011;5038;53.064;8.624;2022-12-11T10:19:10;34.03;;;27.07;;
9997;SDS011;5038;53.064;8.624;2022-12-11T10:21:44;33.10;;;26.73;;
9997;SDS011;5038;53.064;8.624;2022-12-11T10:24:16;33.80;;;28.13;;
9997;SDS011;5038;53.064;8.624;2022-12-11T10:27:12;38.03;;;28.90;;
9997;SDS011;5038;53.064;8.624;2022-12-11T10:29:44;55.00;;;40.10;;
9997;SDS011;5038;53.064;8.624;2022-12-11T10:32:19;43.50;;;35.00;;
9997;SDS011;5038;53.064;8.624;2022-12-11T10:34:50;35.93;;;26.50;;
9997;SDS011;5038;53.064;8.624;2022-12-11T10:37:25;35.50;;;28.97;;
9997;SDS011;5038;53.064;8.624;2022-12-11T10:39:53;32.60;;;26.30;;
9997;SDS011;5038;53.064;8.624;2022-12-11T10:42:21;36.50;;;28.73;;
9997;SDS011;5038;53.064;8.624;2022-12-11T10:44:57;36.70;;;28.90;;
9997;SDS011;5038;53.064;8.624;2022-12-11T10:47:28;35.00;;;28.10;;
9997;SDS011;5038;53.064;8.624;2022-12-11T10:49:56;34.53;;;29.10;;
9997;SDS011;5038;53.064;8.624;2022-12-11T10:52:26;34.53;;;28.17;;
9997;SDS011;5038;53.064;8.624;2022-12-11T10:54:58;38.97;;;32.43;;
9997;SDS011;5038;53.064;8.624;2022-12-11T10:57:29;36.30;;;29.17;;
9997;SDS011;5038;53.064;8.624;2022-12-11T10:59:58;35.57;;;29.53;;
9997;SDS011;5038;53.064;8.624;2022-12-11T11:02:29;37.40;;;30.20;;
9997;SDS011;5038;53.064;8.624;2022-12-11T11:05:09;34.63;;;27.80;;
9997;SDS011;5038;53.064;8.624;2022-12-11T11:07:39;49.13;;;40.27;;
9997;SDS011;5038;53.064;8.624;2022-12-11T11:10:13;36.97;;;29.20;;
9997;SDS011;5038;53.064;8.624;2022-12-11T11:12:43;31.77;;;25.50;;
9997;SDS011;5038;53.064;8.624;2022-12-11T11:15:13;37.60;;;30.60;;
9997;SDS011;5038;53.064;8.624;2022-12-11T11:17:46;37.53;;;28.93;;
9997;SDS011;5038;53.064;8.624;2022-12-11T11:20:21;36.90;;;30.70;;
9997;SDS011;5038;53.064;8.624;2022-12-11T11:22:51;41.57;;;30.90;;
9997;SDS011;5038;53.064;8.624;2022-12-11T11:25:21;36.70;;;29.20;;
9997;SDS011;5038;53.064;8.624;2022-12-11T11:27:51;36.63;;;29.67;;
9997;SDS011;5038;53.064;8.624;2022-12-11T11:30:23;35.30;;;29.30;;
9997;SDS011;5038;53.064;8.624;2022-12-11T11:32:55;38.70;;;30.37;;
9997;SDS011;5038;53.064;8.624;2022-12-11T11:35:28;40.50;;;29.20;;
9997;SDS011;5038;53.064;8.624;2022-12-11T11:37:59;39.53;;;31.53;;
9997;SDS011;5038;53.064;8.624;2022-12-11T11:40:30;39.30;;;31.67;;
9997;SDS011;5038;53.064;8.624;2022-12-11T11:43:09;41.97;;;31.77;;
9997;SDS011;5038;53.064;8.624;2022-12-11T11:45:45;38.33;;;32.77;;
9997;SDS011;5038;53.064;8.624;2022-12-11T11:48:26;41.20;;;33.67;;
9997;SDS011;5038;53.064;8.624;2022-12-11T11:51:04;42.63;;;34.13;;
9997;SDS011;5038;53.064;8.624;2022-12-11T11:53:41;40.63;;;31.57;;
9997;SDS011;5038;53.064;8.624;2022-12-11T11:56:18;40.30;;;31.27;;
9997;SDS011;5038;53.064;8.624;2022-12-11T11:58:56;38.47;;;30.77;;
9997;SDS011;5038;53.064;8.624;2022-12-11T12:01:29;35.93;;;29.40;;
9997;SDS011;5038;53.064;8.624;2022-12-11T12:03:59;38.47;;;30.67;;
9997;SDS011;5038;53.064;8.624;2022-12-11T12:06:53;41.67;;;31.20;;
9997;SDS011;5038;53.064;8.624;2022-12-11T12:09:31;39.40;;;31.00;;
9997;SDS011;5038;53.064;8.624;2022-12-11T12:12:11;44.30;;;33.73;;
9997;SDS011;5038;53.064;8.624;2022-12-11T12:14:57;39.10;;;30.87;;
9997;SDS011;5038;53.064;8.624;2022-12-11T12:17:47;40.00;;;31.30;;
9997;SDS011;5038;53.064;8.624;2022-12-11T12:20:26;42.63;;;32.93;;
9997;SDS011;5038;53.064;8.624;2022-12-11T12:23:02;42.77;;;33.30;;
9997;SDS011;5038;53.064;8.624;2022-12-11T12:25:42;40.90;;;30.70;;
9997;SDS011;5038;53.064;8.624;2022-12-11T12:28:17;46.30;;;34.37;;
9997;SDS011;5038;53.064;8.624;2022-12-11T12:30:59;39.90;;;31.70;;
9997;SDS011;5038;53.064;8.624;2022-12-11T12:33:42;42.13;;;32.23;;
9997;SDS011;5038;53.064;8.624;2022-12-11T12:36:22;40.63;;;33.03;;
9997;SDS011;5038;53.064;8.624;2022-12-11T12:38:59;49.87;;;36.60;;
9997;SDS011;5038;53.064;8.624;2022-12-11T12:41:31;46.27;;;31.20;;
9997;SDS011;5038;53.064;8.624;2022-12-11T12:44:10;47.73;;;32.43;;
9997;SDS011;5038;53.064;8.624;2022-12-11T12:46:42;43.63;;;33.83;;
9997;SDS011;5038;53.064;8.624;2022-12-11T12:49:24;45.33;;;32.27;;
9997;SDS011;5038;53.064;8.624;2022-12-11T12:52:03;75.53;;;52.47;;
9997;SDS011;5038;53.064;8.624;2022-12-11T12:54:33;48.97;;;35.70;;
9997;SDS011;5038;53.064;8.624;2022-12-11T12:57:03;44.10;;;31.70;;
9997;SDS011;5038;53.064;8.624;2022-12-11T12:59:32;44.33;;;31.53;;
9997;SDS011;5038;53.064;8.624;2022-12-11T13:02:00;44.30;;;31.40;;
9997;SDS011;5038;53.064;8.624;2022-12-11T13:04:35;43.13;;;30.70;;
9997;SDS011;5038;53.064;8.624;2022-12-11T13:07:26;42.50;;;29.80;;
9997;SDS011;5038;53.064;8.624;2022-12-11T13:09:57;42.67;;;30.20;;
9997;SDS011;5038;53.064;8.624;2022-12-11T13:12:30;45.30;;;32.07;;
9997;SDS011;5038;53.064;8.624;2022-12-11T13:15:00;47.70;;;32.23;;
9997;SDS011;5038;53.064;8.624;2022-12-11T13:17:35;46.00;;;32.30;;
9997;SDS011;5038;53.064;8.624;2022-12-11T13:20:09;42.20;;;29.90;;
9997;SDS011;5038;53.064;8.624;2022-12-11T13:22:54;45.47;;;31.57;;
9997;SDS011;5038;53.064;8.624;2022-12-11T13:25:45;46.80;;;31.40;;
9997;SDS011;5038;53.064;8.624;2022-12-11T13:28:25;43.00;;;31.90;;
9997;SDS011;5038;53.064;8.624;2022-12-11T13:31:06;45.07;;;32.17;;
9997;SDS011;5038;53.064;8.624;2022-12-11T13:36:50;41.33;;;30.23;;
9997;SDS011;5038;53.064;8.624;2022-12-11T13:39:21;46.30;;;29.50;;
9997;SDS011;5038;53.064;8.624;2022-12-11T13:41:53;43.80;;;30.80;;
9997;SDS011;5038;53.064;8.624;2022-12-11T13:44:25;39.70;;;29.73;;
9997;SDS011;5038;53.064;8.624;2022-12-11T13:46:56;41.33;;;31.03;;
9997;SDS011;5038;53.064;8.624;2022-12-11T13:49:27;43.80;;;31.37;;
9997;SDS011;5038;53.064;8.624;2022-12-11T13:52:00;35.90;;;23.80;;
9997;SDS011;5038;53.064;8.624;2022-12-11T13:54:30;29.90;;;20.90;;
9997;SDS011;5038;53.064;8.624;2022-12-11T13:57:02;34.13;;;23.47;;
9997;SDS011;5038;53.064;8.624;2022-12-11T13:59:42;29.23;;;20.87;;
9997;SDS011;5038;53.064;8.624;2022-12-11T14:02:14;32.37;;;20.77;;
9997;SDS011;5038;53.064;8.624;2022-12-11T14:04:48;28.30;;;19.70;;
9997;SDS011;5038;53.064;8.624;2022-12-11T14:07:21;30.93;;;20.67;;
9997;SDS011;5038;53.064;8.624;2022-12-11T14:09:54;27.93;;;20.00;;
9997;SDS011;5038;53.064;8.624;2022-12-11T14:12:27;22.80;;;18.30;;
9997;SDS011;5038;53.064;8.624;2022-12-11T14:14:56;27.80;;;19.90;;
9997;SDS011;5038;53.064;8.624;2022-12-11T14:17:28;26.10;;;19.63;;
9997;SDS011;5038;53.064;8.624;2022-12-11T14:19:58;26.53;;;19.57;;
9997;SDS011;5038;53.064;8.624;2022-12-11T14:22:28;27.90;;;20.20;;
9997;SDS011;5038;53.064;8.624;2022-12-11T14:24:58;27.50;;;18.80;;
9997;SDS011;5038;53.064;8.624;2022-12-11T14:27:29;27.30;;;20.60;;
9997;SDS011;5038;53.064;8.624;2022-12-11T14:29:57;27.30;;;19.90;;
9997;SDS011;5038;53.064;8.624;2022-12-11T14:32:37;24.63;;;18.47;;
9997;SDS011;5038;53.064;8.624;2022-12-11T14:35:17;22.57;;;18.60;;
9997;SDS011;5038;53.064;8.624;2022-12-11T14:37:51;27.83;;;17.70;;
9997;SDS011;5038;53.064;8.624;2022-12-11T14:40:23;26.70;;;19.33;;
9997;SDS011;5038;53.064;8.624;2022-12-11T14:42:55;25.40;;;18.77;;
9997;SDS011;5038;53.064;8.624;2022-12-11T14:45:29;25.27;;;18.77;;
9997;SDS011;5038;53.064;8.624;2022-12-11T14:48:03;25.83;;;19.03;;
9997;SDS011;5038;53.064;8.624;2022-12-11T14:50:36;24.00;;;17.73;;
9997;SDS011;5038;53.064;8.624;2022-12-11T14:53:11;29.13;;;20.27;;
9997;SDS011;5038;53.064;8.624;2022-12-11T14:55:43;25.77;;;19.40;;
9997;SDS011;5038;53.064;8.624;2022-12-11T14:58:16;26.77;;;19.40;;
9997;SDS011;5038;53.064;8.624;2022-12-11T15:00:54;27.43;;;20.03;;
9997;SDS011;5038;53.064;8.624;2022-12-11T15:03:24;26.43;;;18.83;;
9997;SDS011;5038;53.064;8.624;2022-12-11T15:05:59;26.97;;;20.40;;
9997;SDS011;5038;53.064;8.624;2022-12-11T15:08:29;25.40;;;18.10;;
9997;SDS011;5038;53.064;8.624;2022-12-11T15:11:09;26.83;;;20.93;;
9997;SDS011;5038;53.064;8.624;2022-12-11T15:13:38;28.37;;;19.67;;
9997;SDS011;5038;53.064;8.624;2022-12-11T15:16:17;25.87;;;19.90;;
9997;SDS011;5038;53.064;8.624;2022-12-11T15:18:47;29.27;;;21.33;;